CYSY

Details ICAO CYSY (YSY)
Name SACHS HARBOUR
Region Canada
Timezone America/Yellowknife (UTC-7.0)
Plans Departing 4
Arriving 1
Stats Elevation 282 ft / 86 m (AMSL)
Location 71.993890° -125.242500°
Runways 1
Magnetic Variation 21.641° E
Sunrise Unknown / Unknown
Sunset Unknown / Unknown
Advertisement - Login to hide

Runways

ID Width Length Bearing (true) Bearing (mag) Surface Threshold Offset Overrun Length
08T 100 ft / 30 m 3,969 ft / 1,210 m 84.10° 62.46° Gravel 0 ft / 0 m 0 ft / 0 m
26T 100 ft / 30 m 3,969 ft / 1,210 m 264.14° 242.50° Gravel 0 ft / 0 m 0 ft / 0 m

Map

Weather


0- 5 10 15 20 25 30 35+ Temperature / ° C

Clouds and Precipitation
Forecast for 2017-12-12 06:00 UTC. Updated 2 hours ago

Ground ~20,000 ft ~40,000 ft Winds

METAR

Not found

TAF

TAF AMD TAF AMD CYSY 111914Z 1119/1124 06015KT 2SM -SN BR BKN003 TEMPO 1119/1121 P6SM NSW FEW003 SCT015 FM112100 06012KT P6SM FEW004 BKN008 TEMPO 1121/1124 SCT008 RMK NXT FCST WILL BE ISSUED AT 121545Z

Frequencies

Unicom 122.10 MHz MANDATORY FREQ
Warning: Do not use this data for real-world aviation or navigation. No guarantee of current accuracy is given.